CTN4W LDZD-LDPL

Flight info

Callsign CTN4W
Flight time 0h 31m
Altitude 20000
Route SAL Y88 LOS
Aircraft A319/M-SDE3FGHIRWY/LB1

Departure

Time 2026-04-28 11:17
Airport Zadar Airport (LDZD)

Arrival

Time 2026-04-28 11:48
Airport Pula Airport (LDPL)
Time Latitude Longitude Altitude Speed Heading
2026-04-28 10:55 44.09822 15.35438 270 ft 0 kts 310°
2026-04-28 11:13 44.09823 15.35438 270 ft 0 kts 310°
2026-04-28 11:13 44.09816 15.35422 270 ft 4 kts 215°
2026-04-28 11:14 44.09797 15.35465 270 ft 9 kts 115°
2026-04-28 11:14 44.09761 15.35538 270 ft 10 kts 162°
2026-04-28 11:14 44.09689 15.35543 270 ft 11 kts 177°
2026-04-28 11:14 44.09606 15.35545 270 ft 13 kts 179°
2026-04-28 11:15 44.09515 15.35550 270 ft 14 kts 179°
2026-04-28 11:15 44.09417 15.35561 270 ft 15 kts 155°
2026-04-28 11:15 44.09342 15.35663 271 ft 16 kts 132°
2026-04-28 11:15 44.09275 15.35737 273 ft 11 kts 181°
2026-04-28 11:16 44.09210 15.35676 273 ft 12 kts 220°
2026-04-28 11:16 44.09064 15.35496 274 ft 63 kts 221°
2026-04-28 11:16 44.08541 15.34858 280 ft 134 kts 221°
2026-04-28 11:16 44.07781 15.33963 833 ft 140 kts 220°
2026-04-28 11:17 44.07055 15.33065 1586 ft 139 kts 219°
2026-04-28 11:17 44.06325 15.32166 2219 ft 144 kts 220°
2026-04-28 11:17 44.05518 15.31176 2631 ft 166 kts 220°
2026-04-28 11:17 44.04588 15.30036 3109 ft 189 kts 221°
2026-04-28 11:18 44.03532 15.28742 3532 ft 215 kts 221°
2026-04-28 11:18 44.02347 15.27289 4082 ft 240 kts 222°
2026-04-28 11:18 44.01034 15.25678 4768 ft 261 kts 222°
2026-04-28 11:18 43.99653 15.23984 5772 ft 268 kts 222°
2026-04-28 11:19 43.98243 15.22259 6821 ft 272 kts 223°
2026-04-28 11:19 43.97014 15.20251 7788 ft 276 kts 242°
2026-04-28 11:19 43.96421 15.17713 8777 ft 280 kts 264°
2026-04-28 11:19 43.96585 15.15023 9793 ft 284 kts 287°
2026-04-28 11:20 43.97501 15.12577 10586 ft 295 kts 308°
2026-04-28 11:20 43.99063 15.10551 10978 ft 320 kts 320°
2026-04-28 11:20 44.00814 15.08533 11634 ft 332 kts 320°
2026-04-28 11:20 44.02608 15.06475 12513 ft 337 kts 320°
2026-04-28 11:21 44.04426 15.04383 13413 ft 342 kts 319°
2026-04-28 11:21 44.06263 15.02252 14229 ft 346 kts 319°
2026-04-28 11:21 44.08115 15.00091 15008 ft 349 kts 319°
2026-04-28 11:21 44.09981 14.97903 15816 ft 352 kts 318°
2026-04-28 11:22 44.11862 14.95697 16602 ft 355 kts 318°
2026-04-28 11:22 44.13760 14.93467 17389 ft 358 kts 318°
2026-04-28 11:22 44.15668 14.91224 18170 ft 361 kts 318°
2026-04-28 11:22 44.17570 14.88986 18870 ft 364 kts 318°
2026-04-28 11:23 44.19510 14.86701 19546 ft 367 kts 318°
2026-04-28 11:23 44.21468 14.84390 19936 ft 369 kts 318°
2026-04-28 11:23 44.23423 14.82078 20056 ft 369 kts 317°
2026-04-28 11:23 44.25386 14.79755 20081 ft 370 kts 317°
2026-04-28 11:24 44.27352 14.77431 20079 ft 371 kts 318°
2026-04-28 11:24 44.29319 14.75108 20079 ft 371 kts 318°
2026-04-28 11:24 44.31287 14.72781 20079 ft 371 kts 317°
2026-04-28 11:24 44.33252 14.70448 20074 ft 371 kts 317°
2026-04-28 11:25 44.35216 14.68113 20079 ft 371 kts 317°
2026-04-28 11:25 44.37182 14.65777 20072 ft 371 kts 317°
2026-04-28 11:25 44.39145 14.63445 20069 ft 371 kts 317°
2026-04-28 11:25 44.41112 14.61112 20073 ft 371 kts 317°
2026-04-28 11:26 44.43078 14.58778 20078 ft 371 kts 317°
2026-04-28 11:26 44.45045 14.56444 20089 ft 371 kts 317°
2026-04-28 11:26 44.47013 14.54104 20095 ft 371 kts 317°
2026-04-28 11:26 44.48972 14.51768 20084 ft 371 kts 317°
2026-04-28 11:27 44.50936 14.49421 20090 ft 371 kts 317°
2026-04-28 11:27 44.52801 14.46943 20089 ft 369 kts 309°
2026-04-28 11:27 44.54342 14.44081 20089 ft 367 kts 303°
2026-04-28 11:27 44.55818 14.41152 20091 ft 367 kts 303°
2026-04-28 11:28 44.57294 14.38232 20089 ft 367 kts 304°
2026-04-28 11:28 44.58775 14.35309 20089 ft 367 kts 304°
2026-04-28 11:28 44.60251 14.32393 20091 ft 367 kts 304°
2026-04-28 11:28 44.61729 14.29467 20095 ft 367 kts 303°
2026-04-28 11:29 44.63202 14.26547 20093 ft 366 kts 304°
2026-04-28 11:29 44.64673 14.23628 20100 ft 366 kts 303°
2026-04-28 11:29 44.66136 14.20718 20100 ft 364 kts 303°
2026-04-28 11:29 44.67598 14.17813 20093 ft 364 kts 303°
2026-04-28 11:30 44.69055 14.14915 20092 ft 363 kts 303°
2026-04-28 11:30 44.71960 14.09121 20104 ft 357 kts 303°
2026-04-28 11:30 44.73360 14.06332 19989 ft 342 kts 303°
2026-04-28 11:31 44.74696 14.03670 19839 ft 323 kts 303°
2026-04-28 11:31 44.75967 14.01131 19376 ft 313 kts 303°
2026-04-28 11:31 44.77040 13.98506 18781 ft 307 kts 290°
2026-04-28 11:31 44.77603 13.95673 18151 ft 304 kts 277°
2026-04-28 11:32 44.77673 13.92678 17425 ft 302 kts 268°
2026-04-28 11:32 44.77598 13.89731 16742 ft 301 kts 268°
2026-04-28 11:32 44.77529 13.86792 16091 ft 300 kts 268°
2026-04-28 11:32 44.77464 13.83872 15466 ft 298 kts 268°
2026-04-28 11:33 44.77400 13.80993 14863 ft 297 kts 268°
2026-04-28 11:33 44.77336 13.78059 14261 ft 296 kts 268°
2026-04-28 11:33 44.77272 13.75197 13651 ft 295 kts 268°
2026-04-28 11:33 44.77226 13.73249 13214 ft 294 kts 268°
2026-04-28 11:34 44.77133 13.69458 12383 ft 291 kts 268°
2026-04-28 11:34 44.77085 13.67539 11990 ft 289 kts 268°
2026-04-28 11:34 44.76998 13.63809 11199 ft 286 kts 268°
2026-04-28 11:34 44.76954 13.61927 10799 ft 285 kts 268°
2026-04-28 11:35 44.76863 13.58261 10022 ft 282 kts 268°
2026-04-28 11:35 44.76816 13.56406 9591 ft 280 kts 268°
2026-04-28 11:35 44.77105 13.53770 9237 ft 266 kts 293°
2026-04-28 11:35 44.78148 13.51757 9107 ft 248 kts 320°
2026-04-28 11:36 44.79626 13.50696 8977 ft 233 kts 346°
2026-04-28 11:36 44.81183 13.50518 8894 ft 215 kts 357°
2026-04-28 11:36 44.82611 13.50460 8750 ft 192 kts 356°
2026-04-28 11:36 44.83841 13.50404 8623 ft 164 kts 356°
2026-04-28 11:37 44.84913 13.50350 8434 ft 147 kts 355°
2026-04-28 11:37 44.85920 13.50304 8121 ft 144 kts 357°
2026-04-28 11:37 44.86906 13.50549 7753 ft 144 kts
2026-04-28 11:37 44.87888 13.50794 7415 ft 143 kts
2026-04-28 11:38 44.88861 13.50728 7036 ft 140 kts 341°
2026-04-28 11:38 44.89769 13.50267 6710 ft 138 kts 335°
2026-04-28 11:38 44.90652 13.49757 6381 ft 137 kts 335°
2026-04-28 11:38 44.91529 13.49244 6027 ft 136 kts 335°
2026-04-28 11:39 44.92404 13.48737 5667 ft 136 kts 338°
2026-04-28 11:39 44.93332 13.48895 5222 ft 142 kts 33°
2026-04-28 11:39 44.93780 13.50078 4820 ft 142 kts 90°
2026-04-28 11:39 44.93515 13.51384 4475 ft 138 kts 117°
2026-04-28 11:40 44.93070 13.52583 4131 ft 137 kts 124°
2026-04-28 11:40 44.92506 13.53647 3810 ft 134 kts 133°
2026-04-28 11:40 44.91885 13.54615 3497 ft 132 kts 134°
2026-04-28 11:40 44.91257 13.55551 3180 ft 130 kts 134°
2026-04-28 11:41 44.90639 13.56458 3026 ft 127 kts 134°
2026-04-28 11:41 44.90019 13.57359 3010 ft 128 kts 134°
2026-04-28 11:41 44.89396 13.58261 3001 ft 129 kts 135°
2026-04-28 11:41 44.88772 13.59171 3008 ft 129 kts 134°
2026-04-28 11:42 44.88461 13.60314 3014 ft 132 kts 79°
2026-04-28 11:42 44.88758 13.61525 3355 ft 135 kts 76°
2026-04-28 11:42 44.88833 13.62831 3279 ft 131 kts 89°
2026-04-28 11:42 44.88841 13.64119 3276 ft 131 kts 90°
2026-04-28 11:43 44.88849 13.65403 3276 ft 131 kts 90°
2026-04-28 11:43 44.88863 13.66691 3180 ft 131 kts 90°
2026-04-28 11:43 44.88879 13.67965 3084 ft 130 kts 90°
2026-04-28 11:43 44.88896 13.69235 3028 ft 130 kts 90°
2026-04-28 11:44 44.88917 13.70503 3008 ft 129 kts 89°
2026-04-28 11:44 44.88939 13.71772 2989 ft 131 kts 89°
2026-04-28 11:44 44.88962 13.73050 2791 ft 129 kts 89°
2026-04-28 11:44 44.88986 13.74307 2601 ft 128 kts 90°
2026-04-28 11:45 44.89011 13.75552 2418 ft 127 kts 90°
2026-04-28 11:45 44.89035 13.76794 2229 ft 127 kts 90°
2026-04-28 11:45 44.89061 13.78038 2051 ft 127 kts 90°
2026-04-28 11:45 44.89087 13.79286 1865 ft 127 kts 90°
2026-04-28 11:46 44.89111 13.80527 1682 ft 126 kts 90°
2026-04-28 11:46 44.89137 13.81762 1512 ft 126 kts 90°
2026-04-28 11:46 44.89163 13.83012 1310 ft 126 kts 90°
2026-04-28 11:46 44.89188 13.84249 1118 ft 126 kts 89°
2026-04-28 11:47 44.89215 13.85482 940 ft 126 kts 89°
2026-04-28 11:47 44.89243 13.86712 764 ft 126 kts 89°
2026-04-28 11:47 44.89269 13.87939 583 ft 125 kts 89°
2026-04-28 11:47 44.89288 13.89155 402 ft 124 kts 90°
2026-04-28 11:48 44.89320 13.90362 263 ft 122 kts 88°
2026-04-28 11:48 44.89346 13.91509 225 ft 101 kts 89°
2026-04-28 11:48 44.89356 13.92258 222 ft 52 kts 88°
2026-04-28 11:48 44.89364 13.92603 220 ft 31 kts 88°
2026-04-28 11:49 44.89395 13.92862 223 ft 22 kts 30°
2026-04-28 11:49 44.89532 13.92864 225 ft 19 kts 355°
2026-04-28 11:49 44.89584 13.92728 224 ft 18 kts 269°
2026-04-28 11:49 44.89582 13.92552 226 ft 14 kts 268°
2026-04-28 11:50 44.89609 13.92463 226 ft 9 kts 342°
2026-04-28 11:50 44.89678 13.92457 226 ft 11 kts 358°
2026-04-28 11:50 44.89705 13.92502 227 ft 6 kts 84°
2026-04-28 11:50 44.89713 13.92524 226 ft 4 kts 50°
2026-04-28 11:51 44.89735 13.92521 226 ft 4 kts 329°
2026-04-28 11:51 44.89742 13.92505 226 ft 0 kts 296°